الصفحة الرئيسية
METAR-TAF:

METAR-TAF

مطار :

Osorno, تشيلي

دائرة عرض: 40-36-41S, خط طول: 73-03-38W, ارتفاع: 57 متر

مراقبة الطقس الحالي

تاريخ ووقت الإصدار 17 دقيقة قبل الساعة 23:00UTC
ريح 4 عقدة من الجنوب الشرقي
درجة الحرارة 5°درجة مئوية
الرطوبة 93%
ضغط 1024 hPa
الرؤية 10 كم أو أكثر
الغيوم لا تقل 1500 م ولا وجود لمزنة ركامية السحاب الأسود

METAR: SCJO 212300Z 14004KT CAVOK 05/04 Q1024

زمن: 19:17 (23:17 UTC)

توقعات

تاريخ ووقت الإصدار 10ساعات و 6 دقيقة قبل الساعة 13:11UTC
التوقعات صالحة من21 الساعة 13 UTC إلى 21 الساعة 24 UTC
ريح 2 عقدةمن اتجاهات متغيرة
الرؤية: 0200 متر
على ارتفاع 100 قدم
ضباب
أصبح
من 21 الساعة 15 UTC إلى 21 الساعة 17 UTC
الرؤية: 1500 متر
غيوم متفرقة على ارتفاع 400 قدم
غشاء
أصبح
من 21 الساعة 17 UTC إلى 21 الساعة 19 UTC
الرؤية 10 كم أو أكثر
الغيوم لا تقل 1500 م ولا وجود لمزنة ركامية السحاب الأسود

TAF: SCJO 211311Z 2113/2124 VRB02KT 0200 FG VV001 TN03/2113Z TX12/2119Z BECMG 2115/2117 1500 BR SCT004 BECMG 2117/2119 CAVOK

أرصاد الطقس والتوقعات من أكثر من 4000 مطار (تقارير الطقس للمطار METAR والتنبؤ بالطقس بالمطارTAF).

المحطات المتاحة هي النقط الصفراء والحمراء على الخريطة.

حرك المؤشر فوق النقطة لمعرفة اسم المحطة.

ثم انقر لمعرفة أرصاد وتوقعات الطقس.

لتغيير الخارطة: اضغط على الأزرار الخضراء مع رمز الصليب الأسود للتكبير. على الزر الأخضر مع شرطة للتصغير، أو على الأسهم الخضراء للخرائط المجاورة.


METAR-TAF: